createdAt,value
2022-10-24T00:01:36.629Z,82.40
2022-10-24T00:04:08.187Z,83.52
2022-10-24T00:06:36.321Z,83.77
2022-10-24T00:09:04.652Z,84.13
2022-10-24T00:11:32.630Z,83.86
2022-10-24T00:14:00.909Z,82.45
2022-10-24T00:16:29.644Z,81.25
2022-10-24T00:18:57.850Z,81.25
2022-10-24T00:21:27.290Z,80.84
2022-10-24T00:23:55.331Z,80.09
2022-10-24T00:26:23.449Z,79.46
2022-10-24T00:28:51.600Z,79.12
2022-10-24T00:31:21.097Z,79.92
2022-10-24T00:33:49.147Z,80.33
2022-10-24T00:36:19.560Z,79.30
2022-10-24T00:38:49.694Z,79.73
2022-10-24T00:41:20.618Z,79.80
2022-10-24T00:43:49.135Z,79.24
2022-10-24T00:46:19.228Z,80.08
2022-10-24T00:48:49.543Z,80.65
2022-10-24T00:51:24.710Z,80.46
2022-10-24T00:56:33.720Z,80.54
2022-10-24T00:59:04.417Z,80.10
2022-10-24T01:01:34.086Z,80.28
2022-10-24T01:04:02.247Z,80.55
2022-10-24T01:06:47.193Z,80.39
2022-10-24T01:09:30.881Z,80.98
2022-10-24T01:12:10.040Z,81.80
2022-10-24T01:14:49.710Z,81.91
2022-10-24T01:17:23.996Z,82.47
2022-10-24T01:20:27.049Z,82.35
2022-10-24T01:23:29.602Z,82.97
2022-10-24T01:26:15.290Z,83.36
2022-10-24T01:28:53.861Z,83.34
2022-10-24T01:31:30.539Z,83.25
2022-10-24T01:34:05.064Z,82.67
2022-10-24T01:36:40.408Z,83.03
2022-10-24T01:39:14.977Z,82.81
2022-10-24T01:41:44.733Z,83.28
2022-10-24T01:44:18.162Z,83.65
2022-10-24T01:46:52.723Z,83.44
2022-10-24T01:49:24.551Z,83.01
2022-10-24T01:51:58.535Z,83.58
2022-10-24T01:54:27.094Z,83.21
2022-10-24T01:56:55.190Z,83.37
2022-10-24T01:59:45.917Z,84.17
2022-10-24T02:02:20.963Z,84.92
2022-10-24T02:04:55.598Z,85.30
2022-10-24T02:07:24.854Z,86.25
2022-10-24T02:09:58.962Z,86.80
2022-10-24T02:12:28.405Z,87.41
2022-10-24T02:15:01.520Z,87.87
2022-10-24T02:17:31.020Z,87.94
2022-10-24T02:20:00.197Z,88.15
2022-10-24T02:22:31.768Z,88.07
2022-10-24T02:25:04.297Z,88.48
2022-10-24T02:27:39.632Z,88.24
2022-10-24T02:30:11.204Z,88.89
2022-10-24T02:32:44.522Z,88.80
2022-10-24T02:35:16.075Z,89.25
2022-10-24T02:37:48.264Z,89.49
2022-10-24T02:40:18.943Z,89.50
2022-10-24T02:42:50.451Z,89.52
2022-10-24T02:45:19.723Z,89.18
2022-10-24T02:47:51.862Z,89.18
2022-10-24T02:50:20.698Z,89.56
2022-10-24T02:52:49.330Z,89.18
2022-10-24T02:55:17.436Z,89.82
2022-10-24T02:57:45.498Z,89.63
2022-10-24T03:00:14.601Z,89.90
2022-10-24T03:02:43.095Z,89.02
2022-10-24T03:05:12.844Z,89.72
2022-10-24T03:07:40.941Z,89.61
2022-10-24T03:10:09.578Z,89.15
2022-10-24T03:12:37.668Z,89.47
2022-10-24T03:15:06.384Z,89.62
2022-10-24T03:17:34.471Z,89.83
2022-10-24T03:20:02.704Z,89.61
2022-10-24T03:22:32.148Z,89.71
2022-10-24T03:25:03.031Z,89.88
2022-10-24T03:27:31.654Z,89.86
2022-10-24T03:29:59.635Z,90.09
2022-10-24T03:32:28.032Z,90.81
2022-10-24T03:34:56.249Z,90.85
2022-10-24T03:37:24.337Z,91.50
2022-10-24T03:39:53.758Z,91.71
2022-10-24T03:42:21.843Z,91.97
2022-10-24T03:44:49.895Z,92.18
2022-10-24T03:47:18.021Z,92.45
2022-10-24T03:49:46.067Z,93.08
2022-10-24T03:52:14.433Z,93.53
2022-10-24T03:54:42.548Z,94.05
2022-10-24T03:57:12.314Z,93.73
2022-10-24T03:59:40.376Z,94.87
2022-10-24T04:02:08.777Z,94.19
2022-10-24T04:04:37.806Z,94.08
2022-10-24T04:07:06.470Z,94.22
2022-10-24T04:09:34.799Z,94.20
2022-10-24T04:12:06.595Z,94.66
2022-10-24T04:14:51.384Z,94.59
2022-10-24T04:17:19.405Z,94.18
2022-10-24T04:19:47.611Z,94.98
2022-10-24T04:22:16.225Z,94.91
2022-10-24T04:24:44.353Z,94.97
2022-10-24T04:27:12.373Z,94.75
2022-10-24T04:29:41.879Z,95.05
2022-10-24T04:32:10.024Z,95.30
2022-10-24T04:34:38.245Z,95.33
2022-10-24T04:37:06.442Z,95.85
2022-10-24T04:39:34.590Z,95.23
2022-10-24T04:42:02.824Z,95.48
2022-10-24T04:44:31.099Z,96.05
2022-10-24T04:47:00.589Z,96.29
2022-10-24T04:49:28.665Z,95.89
2022-10-24T04:51:56.767Z,96.13
2022-10-24T04:54:24.819Z,96.67
2022-10-24T04:56:53.656Z,96.82
2022-10-24T04:59:21.660Z,97.61
2022-10-24T05:01:50.994Z,98.08
2022-10-24T05:04:20.660Z,98.08
2022-10-24T05:06:48.835Z,98.08
2022-10-24T05:09:16.971Z,98.55
2022-10-24T05:11:45.185Z,99.23
2022-10-24T05:14:14.291Z,98.83
2022-10-24T05:16:42.411Z,98.52
2022-10-24T05:19:10.474Z,98.83
2022-10-24T05:21:40.253Z,98.98
2022-10-24T05:24:08.559Z,98.22
2022-10-24T05:26:36.616Z,98.67
2022-10-24T05:29:04.868Z,98.11
2022-10-24T05:31:34.051Z,97.46
2022-10-24T05:34:02.060Z,96.83
2022-10-24T05:36:30.192Z,95.55
2022-10-24T05:38:59.713Z,94.26
2022-10-24T05:41:27.809Z,93.08
2022-10-24T05:43:55.945Z,92.54
2022-10-24T05:46:23.960Z,91.74
2022-10-24T05:48:52.435Z,90.13
2022-10-24T05:51:20.611Z,90.51
2022-10-24T05:53:48.653Z,89.85
2022-10-24T05:56:18.145Z,88.89
2022-10-24T05:58:46.386Z,88.88
2022-10-24T06:01:15.066Z,87.79
2022-10-24T06:03:43.367Z,87.65
2022-10-24T06:06:12.876Z,88.55
2022-10-24T06:08:41.218Z,88.30
2022-10-24T06:11:11.223Z,87.97
2022-10-24T06:13:41.003Z,88.42
2022-10-24T06:16:10.403Z,87.81
2022-10-24T06:18:38.886Z,87.77
2022-10-24T06:21:09.156Z,87.38
2022-10-24T06:23:37.717Z,86.84
2022-10-24T06:26:11.314Z,86.75
2022-10-24T06:28:40.829Z,84.95
2022-10-24T06:31:08.936Z,84.22
2022-10-24T06:33:37.089Z,83.34
2022-10-24T06:36:09.359Z,82.20
2022-10-24T06:38:37.965Z,81.16
2022-10-24T06:41:10.553Z,79.58
2022-10-24T06:43:42.747Z,79.49
2022-10-24T06:46:12.765Z,78.83
2022-10-24T06:48:40.900Z,78.56
2022-10-24T06:51:09.571Z,78.01
2022-10-24T06:53:37.639Z,77.34
2022-10-24T06:56:06.564Z,74.99
2022-10-24T06:58:35.668Z,74.03
2022-10-24T07:01:10.989Z,74.26
2022-10-24T07:03:39.376Z,74.84
2022-10-24T07:06:09.553Z,75.75
2022-10-24T07:08:38.071Z,74.40
2022-10-24T07:11:06.715Z,73.23
2022-10-24T07:13:34.799Z,72.30
2022-10-24T07:16:02.870Z,72.06
2022-10-24T07:18:32.402Z,71.79
2022-10-24T07:21:03.473Z,71.52
2022-10-24T07:23:32.107Z,71.36
2022-10-24T07:26:03.670Z,71.56
2022-10-24T07:28:32.429Z,70.96
2022-10-24T07:31:01.076Z,70.61
2022-10-24T07:33:29.876Z,70.24
2022-10-24T07:36:00.384Z,69.79
2022-10-24T07:38:28.946Z,69.29
2022-10-24T07:40:57.024Z,68.37
2022-10-24T07:43:25.463Z,67.52
2022-10-24T07:45:53.785Z,67.36
2022-10-24T07:48:22.087Z,67.16
2022-10-24T07:50:50.358Z,66.50
2022-10-24T07:53:19.694Z,65.84
2022-10-24T07:55:47.880Z,65.18
2022-10-24T07:58:16.142Z,65.14
2022-10-24T08:00:45.584Z,65.89
2022-10-24T08:03:13.938Z,64.18
2022-10-24T08:05:42.239Z,63.79
2022-10-24T08:08:27.592Z,63.29
2022-10-24T08:13:29.522Z,61.12
2022-10-24T08:15:57.947Z,61.47
2022-10-24T08:18:28.387Z,61.74
2022-10-24T08:21:00.259Z,61.23
2022-10-24T08:23:28.916Z,61.58
2022-10-24T08:25:57.006Z,60.81
2022-10-24T08:28:26.677Z,61.02
2022-10-24T08:30:58.859Z,60.51
2022-10-24T08:33:27.410Z,61.66
2022-10-24T08:35:58.238Z,58.21
2022-10-24T08:38:26.239Z,57.51
2022-10-24T08:40:54.439Z,57.50
2022-10-24T08:43:23.709Z,57.98
2022-10-24T08:46:02.063Z,56.74
2022-10-24T08:48:34.135Z,56.79
2022-10-24T08:51:12.172Z,55.58
2022-10-24T08:53:42.175Z,57.08
2022-10-24T08:56:13.448Z,57.09
2022-10-24T08:58:44.891Z,55.87
2022-10-24T09:01:31.277Z,55.95
2022-10-24T09:04:04.608Z,55.36
2022-10-24T09:06:34.104Z,54.32
2022-10-24T09:09:05.030Z,54.13
2022-10-24T09:11:45.688Z,54.20
2022-10-24T09:14:15.429Z,52.83
2022-10-24T09:16:46.680Z,51.95
2022-10-24T09:19:18.000Z,52.44
2022-10-24T09:21:47.235Z,53.36
2022-10-24T09:24:32.502Z,53.52
2022-10-24T09:27:04.592Z,51.85
2022-10-24T09:29:35.133Z,51.48
2022-10-24T09:32:05.235Z,51.30
2022-10-24T09:34:33.275Z,51.16
2022-10-24T09:37:01.826Z,50.60
2022-10-24T09:39:32.297Z,50.70
2022-10-24T09:42:24.889Z,50.31
2022-10-24T09:44:57.234Z,50.01
2022-10-24T09:47:30.648Z,50.20
2022-10-24T09:49:58.760Z,49.49
2022-10-24T09:52:32.873Z,49.60
2022-10-24T09:55:18.032Z,49.52
2022-10-24T09:57:46.515Z,49.04
2022-10-24T10:00:25.158Z,48.61
2022-10-24T10:03:03.155Z,49.51
2022-10-24T10:05:44.155Z,49.86
2022-10-24T10:08:18.014Z,49.86
2022-10-24T10:11:07.719Z,48.23
2022-10-24T10:13:45.537Z,47.66
2022-10-24T10:16:23.910Z,47.25
2022-10-24T10:19:02.598Z,46.89
2022-10-24T10:21:56.996Z,48.04
2022-10-24T10:24:27.738Z,46.65
2022-10-24T10:26:55.976Z,47.79
2022-10-24T10:29:25.152Z,47.42
2022-10-24T10:31:59.561Z,46.89
2022-10-24T10:34:36.613Z,46.44
2022-10-24T10:37:28.373Z,47.04
2022-10-24T10:40:17.579Z,45.07
2022-10-24T10:42:57.150Z,44.80
2022-10-24T10:45:36.980Z,44.82
2022-10-24T10:48:19.390Z,45.31
2022-10-24T10:50:56.732Z,45.53
2022-10-24T10:53:34.379Z,45.22
2022-10-24T10:56:16.394Z,45.04
2022-10-24T10:58:52.017Z,45.50
2022-10-24T11:01:32.169Z,44.46
2022-10-24T11:04:07.724Z,44.71
2022-10-24T11:06:47.969Z,44.46
2022-10-24T11:09:30.459Z,44.18
2022-10-24T11:12:08.602Z,43.96
2022-10-24T11:14:39.782Z,44.23
2022-10-24T11:17:14.155Z,43.98
2022-10-24T11:19:50.810Z,43.73
2022-10-24T11:22:26.562Z,43.79
2022-10-24T11:25:00.649Z,44.12
2022-10-24T11:27:34.216Z,44.44
2022-10-24T11:30:07.613Z,44.24
2022-10-24T11:32:41.917Z,44.15
2022-10-24T11:35:23.959Z,43.95
2022-10-24T11:37:58.580Z,43.87
2022-10-24T11:40:30.824Z,43.48
2022-10-24T11:43:09.828Z,43.48
2022-10-24T11:45:46.954Z,42.79
2022-10-24T11:48:20.242Z,43.52
2022-10-24T11:50:54.212Z,43.76
2022-10-24T11:53:47.927Z,42.44
2022-10-24T11:56:23.551Z,42.19
2022-10-24T11:59:00.430Z,42.15
2022-10-24T12:01:48.808Z,42.67
2022-10-24T12:04:49.674Z,42.99
2022-10-24T12:07:56.513Z,43.85
2022-10-24T12:10:43.854Z,43.24
2022-10-24T12:13:28.404Z,43.66
2022-10-24T12:16:03.816Z,43.42
2022-10-24T12:18:34.915Z,43.48
2022-10-24T12:21:06.395Z,42.82
2022-10-24T12:23:35.171Z,42.77
2022-10-24T12:26:07.373Z,42.70
2022-10-24T12:28:36.647Z,43.29
2022-10-24T12:31:23.814Z,43.51
2022-10-24T12:34:30.968Z,43.60
2022-10-24T12:37:21.234Z,43.93
2022-10-24T12:39:54.848Z,43.94
2022-10-24T12:43:03.906Z,42.97
2022-10-24T12:45:34.143Z,43.21
2022-10-24T12:48:33.044Z,43.14
2022-10-24T12:51:30.372Z,43.56
2022-10-24T12:54:15.298Z,42.15
2022-10-24T12:57:16.546Z,42.21
2022-10-24T12:59:48.652Z,42.38
2022-10-24T13:02:48.361Z,42.71
2022-10-24T13:05:35.951Z,43.42
2022-10-24T13:08:17.484Z,43.04
2022-10-24T13:10:53.762Z,43.22
2022-10-24T13:13:49.002Z,43.96
2022-10-24T13:16:30.622Z,42.73
2022-10-24T13:19:10.334Z,41.77
2022-10-24T13:21:47.837Z,41.57
2022-10-24T13:24:37.246Z,41.49
2022-10-24T13:27:26.075Z,41.28
2022-10-24T13:30:16.662Z,41.11
2022-10-24T13:32:45.041Z,41.39
2022-10-24T13:35:26.610Z,41.69
2022-10-24T13:38:00.604Z,41.53
2022-10-24T13:40:33.495Z,41.72
2022-10-24T13:43:07.566Z,41.74
2022-10-24T13:45:45.646Z,41.54
2022-10-24T13:48:19.065Z,41.28
2022-10-24T13:50:57.944Z,41.61
2022-10-24T13:53:31.198Z,41.66
2022-10-24T13:56:02.939Z,41.58
2022-10-24T13:58:44.297Z,41.00
2022-10-24T14:01:20.165Z,40.77
2022-10-24T14:03:49.678Z,40.68
2022-10-24T14:06:26.408Z,40.71
2022-10-24T14:09:06.511Z,40.94
2022-10-24T14:11:40.483Z,40.69
2022-10-24T14:14:24.663Z,41.33
2022-10-24T14:17:07.255Z,41.21
2022-10-24T14:19:38.382Z,41.15
2022-10-24T14:22:20.692Z,40.92
2022-10-24T14:24:49.418Z,40.70
2022-10-24T14:27:20.160Z,41.19
2022-10-24T14:30:00.184Z,40.90
2022-10-24T14:32:30.160Z,41.54
2022-10-24T14:37:37.303Z,41.81
2022-10-24T14:40:07.010Z,41.93
2022-10-24T14:42:35.605Z,41.81
2022-10-24T14:45:03.742Z,42.03
2022-10-24T14:47:34.733Z,42.26
2022-10-24T14:50:03.052Z,42.63
2022-10-24T14:52:37.024Z,42.85
2022-10-24T14:55:09.069Z,42.92
2022-10-24T14:57:38.079Z,43.24
2022-10-24T15:00:09.724Z,43.70
2022-10-24T15:02:43.035Z,43.45
2022-10-24T15:05:26.041Z,43.39
2022-10-24T15:08:20.376Z,43.96
2022-10-24T15:10:46.452Z,44.15
2022-10-24T15:13:17.019Z,44.36
2022-10-24T15:15:52.090Z,44.86
2022-10-24T15:18:23.906Z,45.18
2022-10-24T15:21:01.184Z,45.28
2022-10-24T15:23:32.058Z,45.66
2022-10-24T15:26:09.037Z,45.98
2022-10-24T15:28:48.628Z,46.42
2022-10-24T15:31:19.910Z,46.60
2022-10-24T15:33:50.052Z,46.84
2022-10-24T15:36:22.901Z,46.97
2022-10-24T15:38:55.519Z,47.49
2022-10-24T15:41:26.249Z,47.51
2022-10-24T15:43:54.610Z,47.92
2022-10-24T15:46:23.404Z,48.28
2022-10-24T15:48:51.732Z,48.57
2022-10-24T15:51:22.588Z,48.96
2022-10-24T15:53:52.743Z,49.30
2022-10-24T15:56:20.848Z,49.58
2022-10-24T15:58:50.982Z,49.86
2022-10-24T16:01:26.277Z,50.12
2022-10-24T16:03:55.007Z,50.29
2022-10-24T16:06:23.153Z,50.54
2022-10-24T16:08:51.353Z,50.88
2022-10-24T16:11:19.720Z,51.02
2022-10-24T16:13:49.347Z,51.43
2022-10-24T16:16:18.034Z,51.86
2022-10-24T16:18:46.147Z,52.04
2022-10-24T16:21:18.991Z,52.57
2022-10-24T16:23:47.302Z,52.82
2022-10-24T16:26:16.383Z,53.25
2022-10-24T16:28:44.481Z,53.66
2022-10-24T16:31:19.232Z,53.88
2022-10-24T16:33:47.915Z,54.31
2022-10-24T16:36:19.550Z,54.70
2022-10-24T16:38:50.491Z,55.11
2022-10-24T16:41:21.126Z,55.55
2022-10-24T16:43:50.111Z,55.95
2022-10-24T16:46:21.814Z,56.08
2022-10-24T16:48:50.453Z,56.40
2022-10-24T16:51:20.893Z,56.35
2022-10-24T16:53:48.994Z,56.64
2022-10-24T16:56:17.475Z,57.16
2022-10-24T16:58:45.750Z,57.35
2022-10-24T17:01:16.526Z,57.32
2022-10-24T17:03:46.407Z,57.97
2022-10-24T17:06:15.799Z,58.26
2022-10-24T17:08:44.265Z,58.52
2022-10-24T17:11:39.350Z,59.01
2022-10-24T17:14:03.276Z,59.04
2022-10-24T17:16:31.770Z,58.90
2022-10-24T17:19:17.481Z,59.56
2022-10-24T17:21:48.229Z,59.60
2022-10-24T17:24:19.198Z,59.50
2022-10-24T17:26:47.671Z,59.80
2022-10-24T17:29:19.099Z,59.86
2022-10-24T17:31:47.470Z,60.09
2022-10-24T17:34:17.336Z,60.15
2022-10-24T17:36:51.334Z,60.46
2022-10-24T17:39:27.505Z,61.01
2022-10-24T17:41:55.866Z,61.20
2022-10-24T17:44:24.444Z,61.07
2022-10-24T17:46:55.941Z,62.10
2022-10-24T17:49:28.018Z,62.11
2022-10-24T17:51:56.233Z,62.63
2022-10-24T17:54:24.769Z,63.23
2022-10-24T17:56:52.971Z,63.86
2022-10-24T17:59:22.089Z,63.98
2022-10-24T18:01:50.547Z,64.40
2022-10-24T18:04:18.939Z,65.60
2022-10-24T18:06:48.570Z,66.22
2022-10-24T18:09:16.734Z,66.80
2022-10-24T18:11:44.893Z,67.51
2022-10-24T18:14:12.998Z,67.47
2022-10-24T18:16:44.118Z,67.74
2022-10-24T18:19:12.551Z,68.70
2022-10-24T18:21:40.748Z,70.26
2022-10-24T18:24:10.508Z,70.07
2022-10-24T18:26:39.308Z,70.09
2022-10-24T18:29:07.378Z,70.77
2022-10-24T18:31:36.170Z,70.70
2022-10-24T18:34:07.522Z,72.66
2022-10-24T18:36:37.121Z,72.31
2022-10-24T18:39:05.639Z,72.48
2022-10-24T18:41:45.251Z,71.27
2022-10-24T18:44:26.234Z,72.32
2022-10-24T18:46:57.391Z,71.95
2022-10-24T18:49:26.280Z,72.64
2022-10-24T18:52:05.315Z,72.93
2022-10-24T18:54:36.487Z,72.82
2022-10-24T18:57:18.491Z,72.65
2022-10-24T18:59:48.056Z,72.70
2022-10-24T19:02:26.646Z,72.74
2022-10-24T19:05:05.813Z,72.78
2022-10-24T19:07:34.184Z,72.07
2022-10-24T19:10:02.484Z,71.40
2022-10-24T19:12:32.889Z,71.51
2022-10-24T19:15:01.358Z,71.92
2022-10-24T19:17:29.699Z,71.60
2022-10-24T19:20:00.581Z,71.57
2022-10-24T19:22:30.000Z,71.47
2022-10-24T19:24:58.881Z,71.47
2022-10-24T19:27:27.839Z,71.69
2022-10-24T19:29:57.355Z,71.69
2022-10-24T19:32:25.524Z,72.42
2022-10-24T19:34:53.813Z,72.35
2022-10-24T19:37:21.925Z,72.96
2022-10-24T19:39:50.058Z,73.55
2022-10-24T19:42:19.783Z,73.96
2022-10-24T19:44:53.968Z,74.54
2022-10-24T19:47:23.957Z,74.96
2022-10-24T19:49:53.814Z,75.50
2022-10-24T19:52:22.113Z,75.79
2022-10-24T19:54:50.254Z,75.99
2022-10-24T19:57:18.691Z,76.56
2022-10-24T19:59:46.851Z,76.79
2022-10-24T20:02:14.934Z,77.32
2022-10-24T20:04:48.905Z,77.66
2022-10-24T20:07:17.847Z,79.14
2022-10-24T20:09:46.451Z,79.96
2022-10-24T20:12:14.496Z,80.37
2022-10-24T20:14:42.576Z,80.50
2022-10-24T20:17:10.830Z,80.69
2022-10-24T20:19:38.875Z,81.31
2022-10-24T20:22:08.419Z,81.69
2022-10-24T20:24:36.592Z,82.37
2022-10-24T20:29:38.008Z,82.15
2022-10-24T20:32:06.429Z,82.54
2022-10-24T20:34:34.470Z,82.77
2022-10-24T20:37:02.754Z,83.00
2022-10-24T20:39:32.277Z,83.51
2022-10-24T20:42:00.394Z,83.76
2022-10-24T20:44:28.808Z,83.58
2022-10-24T20:46:59.071Z,83.54
2022-10-24T20:49:27.599Z,83.97
2022-10-24T20:51:55.701Z,84.31
2022-10-24T20:54:23.754Z,83.78
2022-10-24T20:56:54.059Z,83.69
2022-10-24T20:59:22.916Z,84.43
2022-10-24T21:01:51.121Z,84.35
2022-10-24T21:04:20.951Z,84.46
2022-10-24T21:06:49.359Z,83.15
2022-10-24T21:09:17.505Z,82.97
2022-10-24T21:11:45.582Z,82.96
2022-10-24T21:14:15.147Z,83.04
2022-10-24T21:16:43.379Z,82.90
2022-10-24T21:19:11.424Z,83.27
2022-10-24T21:21:40.237Z,83.57
2022-10-24T21:24:09.069Z,84.20
2022-10-24T21:26:39.108Z,84.52
2022-10-24T21:29:14.858Z,84.48
2022-10-24T21:31:52.145Z,84.24
2022-10-24T21:34:20.997Z,84.46
2022-10-24T21:36:49.381Z,85.35
2022-10-24T21:39:18.294Z,85.33
2022-10-24T21:41:46.466Z,85.12
2022-10-24T21:44:15.273Z,85.60
2022-10-24T21:46:43.379Z,86.11
2022-10-24T21:49:12.984Z,86.89
2022-10-24T21:51:42.843Z,87.00
2022-10-24T21:54:17.523Z,87.28
2022-10-24T21:56:45.717Z,87.62
2022-10-24T21:59:16.118Z,87.40
2022-10-24T22:01:46.638Z,87.68
2022-10-24T22:04:16.936Z,87.70
2022-10-24T22:06:46.175Z,88.03
2022-10-24T22:09:17.107Z,87.91
2022-10-24T22:11:46.714Z,88.13
2022-10-24T22:14:16.137Z,88.34
2022-10-24T22:16:46.818Z,88.92
2022-10-24T22:19:16.903Z,88.52
2022-10-24T22:21:47.160Z,88.90
2022-10-24T22:24:16.862Z,89.01
2022-10-24T22:26:45.440Z,89.40
2022-10-24T22:29:18.071Z,89.80
2022-10-24T22:31:47.083Z,90.22
2022-10-24T22:34:20.265Z,90.34
2022-10-24T22:37:02.516Z,90.85
2022-10-24T22:39:31.164Z,91.21
2022-10-24T22:41:59.559Z,91.41
2022-10-24T22:44:28.236Z,91.21
2022-10-24T22:47:19.266Z,91.27
2022-10-24T22:49:59.791Z,91.62
2022-10-24T22:52:28.442Z,92.01
2022-10-24T22:54:57.208Z,92.69
2022-10-24T22:57:25.942Z,93.10
2022-10-24T22:59:54.439Z,93.40
2022-10-24T23:02:31.455Z,94.20
2022-10-24T23:05:07.621Z,94.48
2022-10-24T23:07:45.299Z,94.43
2022-10-24T23:10:18.146Z,94.97
2022-10-24T23:12:47.114Z,94.68
2022-10-24T23:15:16.674Z,95.02
2022-10-24T23:17:46.008Z,94.89
2022-10-24T23:20:27.548Z,95.26
2022-10-24T23:23:09.427Z,96.06
2022-10-24T23:25:52.247Z,95.94
2022-10-24T23:28:25.421Z,95.70
2022-10-24T23:30:54.248Z,95.33
2022-10-24T23:33:27.384Z,95.67
2022-10-24T23:35:59.972Z,95.47
2022-10-24T23:38:29.152Z,95.34
2022-10-24T23:40:58.009Z,95.24
2022-10-24T23:43:26.598Z,95.29
2022-10-24T23:45:59.585Z,94.75
2022-10-24T23:48:42.495Z,94.84
2022-10-24T23:51:15.599Z,95.58
2022-10-24T23:53:50.560Z,96.29
2022-10-24T23:56:20.677Z,96.23
2022-10-24T23:58:48.902Z,96.65
